Cleveland Heights, Ohio
Current Conditions -  °F | °C
As of 8:45 PM on Friday 19 Dec 2014 (Local Time) from KCGF Reporting Station
Overcast Overcast  
Wind Chill: 23°   Ceiling: 3000
Heat Index: 32°   Visibility: 20mi
Dew Point: 23°   Wind: 12mph
Humidity: 69%   Direction: 310°NW
Pressure: 30.3"   Gusts: NA
Location:  41.52°N, 81.55°W
Report Text: KCGF 200145Z 31010KT 20SM BKN030 OVC045 00/M05 A3030
Loading
Personal Weather Stations






























Interactive Weather Map New forecast layout! Learn more

10-Day Weather Forecast

Advertisements
Track Severe Weather on mobile